This is the latest recevied weather packets stored in our database for station/object I3RKE-10. If no packets are shown the sender has not sent any weather packets the latest 10 day(s).
| Time | Temp. | Humidity | Pressure | Rain* | Wind** | Luminosity | Snow |
|---|---|---|---|---|---|---|---|
| 1777659068 | 20° C | 24% | 1018 hPa | - | - | - | - |
| 1777658168 | 20.56° C | 22% | 1017.9 hPa | - | - | - | - |
| 1777657268 | 25.56° C | 18% | 1017.7 hPa | - | - | - | - |
| 1777656368 | 27.22° C | 16% | 1017.7 hPa | - | - | - | - |
| 1777655468 | 27.22° C | 15% | 1017.5 hPa | - | - | - | - |
| 1777654568 | 26.67° C | 16% | 1017.7 hPa | - | - | - | - |
| 1777653760 | 30.56° C | 13% | 1017.7 hPa | - | - | - | - |
| 1777653708 | 30.56° C | 13% | 1017.7 hPa | - | - | - | - |
| 1777653668 | 30.56° C | 13% | 1017.7 hPa | - | - | - | - |
| 1777652768 | 33.33° C | 12% | 1017.7 hPa | - | - | - | - |
| 1777651868 | 31.67° C | 13% | 1017.8 hPa | - | - | - | - |
| 1777651010 | 30.56° C | 13% | 1017.9 hPa | - | - | - | - |
| 1777650968 | 30.56° C | 13% | 1017.9 hPa | - | - | - | - |
| 1777650280 | 29.44° C | 14% | 1018.1 hPa | - | - | - | - |
| 1777650067 | 29.44° C | 14% | 1018.1 hPa | - | - | - | - |
| 1777649167 | 27.22° C | 16% | 1018.2 hPa | - | - | - | - |
| 1777648267 | 26.67° C | 17% | 1018 hPa | - | - | - | - |
| 1777647414 | 24.44° C | 19% | 1018.2 hPa | - | - | - | - |
| 1777647367 | 24.44° C | 19% | 1018.2 hPa | - | - | - | - |
| 1777646467 | 25° C | 18% | 1018 hPa | - | - | - | - |
| 1777645567 | 25.56° C | 17% | 1018.3 hPa | - | - | - | - |
| 1777644667 | 23.33° C | 19% | 1018.4 hPa | - | - | - | - |
| 1777643767 | 22.78° C | 20% | 1018.6 hPa | - | - | - | - |
| 1777642867 | 23.89° C | 18% | 1018.6 hPa | - | - | - | - |
| 1777641967 | 23.89° C | 18% | 1018.8 hPa | - | - | - | - |
* Rain since midnight (hover to see other rain measurements)
** Current wind speed in m/s (hover to see current wind gust speed)